createdAt,value
2019-04-26T00:00:40.996Z,12.1
2019-04-26T00:01:48.011Z,12
2019-04-26T00:02:55.723Z,12
2019-04-26T00:04:02.933Z,12
2019-04-26T00:05:11.057Z,11.9
2019-04-26T00:06:20.587Z,11.8
2019-04-26T00:07:27.800Z,11.8
2019-04-26T00:08:35.101Z,11.7
2019-04-26T00:09:42.687Z,11.7
2019-04-26T00:10:50.143Z,11.6
2019-04-26T00:11:57.779Z,11.6
2019-04-26T00:13:05.090Z,11.6
2019-04-26T00:14:12.927Z,11.4
2019-04-26T00:15:21.207Z,11.4
2019-04-26T00:16:30.075Z,11.4
2019-04-26T00:17:37.593Z,11.3
2019-04-26T00:18:45.463Z,11.3
2019-04-26T00:19:52.979Z,11.2
2019-04-26T00:21:00.930Z,11.2
2019-04-26T00:22:08.295Z,11.2
2019-04-26T00:23:18.064Z,11.2
2019-04-26T00:24:27.085Z,11.2
2019-04-26T00:25:35.604Z,11.1
2019-04-26T00:26:42.837Z,11.1
2019-04-26T00:27:50.060Z,11
2019-04-26T00:28:56.731Z,11
2019-04-26T00:30:03.680Z,10.9
2019-04-26T00:31:12.803Z,10.8
2019-04-26T00:32:20.042Z,10.8
2019-04-26T00:33:28.212Z,10.8
2019-04-26T00:34:35.411Z,10.8
2019-04-26T00:35:48.326Z,10.7
2019-04-26T00:36:55.547Z,10.7
2019-04-26T00:38:02.761Z,10.6
2019-04-26T00:39:09.688Z,10.6
2019-04-26T00:40:19.034Z,10.5
2019-04-26T00:41:27.142Z,10.5
2019-04-26T00:42:34.349Z,10.5
2019-04-26T00:43:41.576Z,10.3
2019-04-26T00:44:48.507Z,10.2
2019-04-26T00:45:55.726Z,10.2
2019-04-26T00:47:02.936Z,10.3
2019-04-26T00:48:09.899Z,10.3
2019-04-26T00:49:17.600Z,10.3
2019-04-26T00:50:25.922Z,10.2
2019-04-26T00:51:33.136Z,10.2
2019-04-26T00:52:40.527Z,10.1
2019-04-26T00:53:47.930Z,10.1
2019-04-26T00:54:55.140Z,10.1
2019-04-26T00:56:02.354Z,10.1
2019-04-26T00:57:09.314Z,10
2019-04-26T00:58:18.435Z,10
2019-04-26T00:59:27.104Z,9.9
2019-04-26T01:00:34.060Z,9.9
2019-04-26T01:01:41.010Z,9.9
2019-04-26T01:02:48.226Z,9.9
2019-04-26T01:03:55.449Z,9.9
2019-04-26T01:05:02.669Z,9.9
2019-04-26T01:06:09.881Z,9.9
2019-04-26T01:07:17.479Z,9.8
2019-04-26T01:08:25.991Z,9.8
2019-04-26T01:09:33.205Z,9.7
2019-04-26T01:10:40.138Z,9.7
2019-04-26T01:11:47.348Z,9.7
2019-04-26T01:12:54.589Z,9.7
2019-04-26T01:14:01.809Z,9.7
2019-04-26T01:15:09.041Z,9.7
2019-04-26T01:16:17.271Z,9.6
2019-04-26T01:17:27.330Z,9.6
2019-04-26T01:18:34.539Z,9.6
2019-04-26T01:19:41.467Z,9.6
2019-04-26T01:20:48.680Z,9.6
2019-04-26T01:21:55.883Z,9.6
2019-04-26T01:23:02.814Z,9.5
2019-04-26T01:24:10.029Z,9.5
2019-04-26T01:25:18.869Z,9.5
2019-04-26T01:26:26.074Z,9.5
2019-04-26T01:27:34.118Z,9.4
2019-04-26T01:28:41.342Z,9.3
2019-04-26T01:29:48.289Z,9.3
2019-04-26T01:30:55.230Z,9.3
2019-04-26T01:32:02.447Z,9.2
2019-04-26T01:33:09.381Z,9.2
2019-04-26T01:34:16.596Z,9.1
2019-04-26T01:35:26.766Z,9.2
2019-04-26T01:36:35.104Z,9.2
2019-04-26T01:37:42.317Z,9.2
2019-04-26T01:38:49.258Z,9.2
2019-04-26T01:39:56.485Z,9.2
2019-04-26T01:41:03.422Z,9.2
2019-04-26T01:42:10.639Z,9.1
2019-04-26T01:43:17.852Z,9
2019-04-26T01:44:25.147Z,9
2019-04-26T01:45:33.314Z,9
2019-04-26T01:46:40.251Z,9
2019-04-26T01:47:47.457Z,9
2019-04-26T01:48:54.689Z,8.9
2019-04-26T01:50:01.913Z,8.9
2019-04-26T01:51:08.855Z,8.9
2019-04-26T01:52:16.073Z,9
2019-04-26T01:53:23.285Z,9
2019-04-26T01:54:32.375Z,9
2019-04-26T01:55:39.595Z,8.9
2019-04-26T01:56:46.802Z,9
2019-04-26T01:57:53.476Z,8.9
2019-04-26T01:59:00.413Z,8.9
2019-04-26T02:00:07.635Z,8.8
2019-04-26T02:01:14.581Z,8.9
2019-04-26T02:02:23.710Z,8.8
2019-04-26T02:03:32.106Z,8.8
2019-04-26T02:04:39.312Z,8.8
2019-04-26T02:05:46.520Z,8.8
2019-04-26T02:06:53.742Z,8.8
2019-04-26T02:08:00.681Z,8.8
2019-04-26T02:09:07.612Z,8.8
2019-04-26T02:10:14.550Z,8.8
2019-04-26T02:11:22.561Z,8.8
2019-04-26T02:12:33.577Z,8.8
2019-04-26T02:13:40.806Z,8.7
2019-04-26T02:14:47.746Z,8.6
2019-04-26T02:15:54.951Z,8.6
2019-04-26T02:17:01.895Z,8.6
2019-04-26T02:18:09.105Z,8.6
2019-04-26T02:19:16.305Z,8.6
2019-04-26T02:20:25.593Z,8.6
2019-04-26T02:21:34.731Z,8.6
2019-04-26T02:22:41.949Z,8.6
2019-04-26T02:23:49.158Z,8.6
2019-04-26T02:24:55.857Z,8.6
2019-04-26T02:26:03.064Z,8.6
2019-04-26T02:27:10.287Z,8.6
2019-04-26T02:28:16.678Z,8.6
2019-04-26T02:29:26.709Z,8.5
2019-04-26T02:30:37.249Z,8.6
2019-04-26T02:31:44.449Z,8.6
2019-04-26T02:32:51.388Z,8.6
2019-04-26T02:33:58.597Z,8.6
2019-04-26T02:35:05.796Z,8.6
2019-04-26T02:36:13.033Z,8.5
2019-04-26T02:37:20.249Z,8.5
2019-04-26T02:38:31.364Z,8.5
2019-04-26T02:39:42.955Z,8.5
2019-04-26T02:40:50.159Z,8.4
2019-04-26T02:41:57.369Z,8.3
2019-04-26T02:43:04.586Z,8.3
2019-04-26T02:44:11.519Z,8.3
2019-04-26T02:45:18.452Z,8.2
2019-04-26T02:46:30.786Z,8.2
2019-04-26T02:47:42.769Z,8.1
2019-04-26T02:48:49.707Z,8.1
2019-04-26T02:49:56.928Z,8.1
2019-04-26T02:51:03.870Z,8.1
2019-04-26T02:52:11.085Z,8.1
2019-04-26T02:53:18.284Z,8
2019-04-26T02:54:25.245Z,8
2019-04-26T02:55:42.712Z,8
2019-04-26T02:56:49.991Z,8
2019-04-26T02:57:57.289Z,7.9
2019-04-26T02:59:04.494Z,7.9
2019-04-26T03:00:11.711Z,7.9
2019-04-26T03:01:18.916Z,7.8
2019-04-26T03:02:25.862Z,7.8
2019-04-26T03:03:39.711Z,7.8
2019-04-26T03:04:47.028Z,7.8
2019-04-26T03:05:53.982Z,7.7
2019-04-26T03:07:04.281Z,7.8
2019-04-26T03:08:11.485Z,7.7
2019-04-26T03:09:18.690Z,7.8
2019-04-26T03:10:25.907Z,7.7
2019-04-26T03:11:37.027Z,7.7
2019-04-26T03:12:45.840Z,7.7
2019-04-26T03:13:53.051Z,7.7
2019-04-26T03:15:14.603Z,7.6
2019-04-26T03:16:21.849Z,7.6
2019-04-26T03:17:30.452Z,7.6
2019-04-26T03:18:43.569Z,7.6
2019-04-26T03:19:50.518Z,7.6
2019-04-26T03:20:57.721Z,7.5
2019-04-26T03:22:04.930Z,7.5
2019-04-26T03:23:12.170Z,7.5
2019-04-26T03:24:19.392Z,7.5
2019-04-26T03:25:26.596Z,7.4
2019-04-26T03:26:37.375Z,7.4
2019-04-26T03:27:49.669Z,7.4
2019-04-26T03:28:56.878Z,7.4
2019-04-26T03:30:22.543Z,7.4
2019-04-26T03:31:49.502Z,7.4
2019-04-26T03:33:02.453Z,7.4
2019-04-26T03:34:10.527Z,7.4
2019-04-26T03:35:18.653Z,7.4
2019-04-26T03:36:25.870Z,7.4
2019-04-26T03:37:37.877Z,7.4
2019-04-26T03:38:50.658Z,7.4
2019-04-26T03:39:57.869Z,7.3
2019-04-26T03:41:05.082Z,7.3
2019-04-26T03:42:12.030Z,7.3
2019-04-26T03:43:18.961Z,7.4
2019-04-26T03:44:26.269Z,7.4
2019-04-26T03:45:34.970Z,7.4
2019-04-26T03:46:48.116Z,7.5
2019-04-26T03:47:55.331Z,7.5
2019-04-26T03:49:02.553Z,7.6
2019-04-26T03:50:09.777Z,7.7
2019-04-26T03:51:16.979Z,7.8
2019-04-26T03:52:24.186Z,7.9
2019-04-26T03:53:31.406Z,8.1
2019-04-26T03:54:42.497Z,8.1
2019-04-26T03:55:50.915Z,8.2
2019-04-26T03:56:58.122Z,8.2
2019-04-26T03:58:05.326Z,8.3
2019-04-26T03:59:12.539Z,8.4
2019-04-26T04:00:19.899Z,8.4
2019-04-26T04:01:27.105Z,8.5
2019-04-26T04:02:38.785Z,8.5
2019-04-26T04:03:51.297Z,8.5
2019-04-26T04:04:58.495Z,8.5
2019-04-26T04:06:05.754Z,8.5
2019-04-26T04:07:12.976Z,8.5
2019-04-26T04:08:20.189Z,8.5
2019-04-26T04:09:27.403Z,8.5
2019-04-26T04:10:34.334Z,8.5
2019-04-26T04:11:49.519Z,8.6
2019-04-26T04:12:57.187Z,8.7
2019-04-26T04:14:04.675Z,8.7
2019-04-26T04:15:12.145Z,8.8
2019-04-26T04:16:19.350Z,8.8
2019-04-26T04:17:26.558Z,8.8
2019-04-26T04:18:33.762Z,8.8
2019-04-26T04:19:43.857Z,8.8
2019-04-26T04:20:53.796Z,8.8
2019-04-26T04:22:01.031Z,8.8
2019-04-26T04:23:07.980Z,8.8
2019-04-26T04:24:15.184Z,8.8
2019-04-26T04:25:22.393Z,8.8
2019-04-26T04:26:29.606Z,8.8
2019-04-26T04:27:38.068Z,8.9
2019-04-26T04:28:51.145Z,8.9
2019-04-26T04:29:58.091Z,8.9
2019-04-26T04:31:05.318Z,8.9
2019-04-26T04:32:12.531Z,8.8
2019-04-26T04:33:19.734Z,8.8
2019-04-26T04:34:26.939Z,8.8
2019-04-26T04:35:34.154Z,8.8
2019-04-26T04:36:46.826Z,8.8
2019-04-26T04:38:09.731Z,8.8
2019-04-26T04:39:17.136Z,8.8
2019-04-26T04:40:24.342Z,8.9
2019-04-26T04:41:31.569Z,8.9
2019-04-26T04:42:38.734Z,8.9
2019-04-26T04:43:51.033Z,8.9
2019-04-26T04:44:59.942Z,8.9
2019-04-26T04:46:07.374Z,9
2019-04-26T04:47:25.789Z,9
2019-04-26T04:48:38.017Z,9
2019-04-26T04:49:48.884Z,9
2019-04-26T04:50:59.540Z,9
2019-04-26T04:52:06.744Z,9.1
2019-04-26T04:53:13.676Z,9.1
2019-04-26T04:54:20.968Z,9.1
2019-04-26T04:55:28.204Z,9.2
2019-04-26T04:56:35.408Z,9.1
2019-04-26T04:57:43.858Z,9.2
2019-04-26T04:58:53.027Z,9.2
2019-04-26T05:00:00.253Z,9.3
2019-04-26T05:01:07.462Z,9.3
2019-04-26T05:02:14.403Z,9.3
2019-04-26T05:03:21.617Z,9.3
2019-04-26T05:04:28.544Z,9.3
2019-04-26T05:05:35.760Z,9.4
2019-04-26T05:06:44.907Z,9.4
2019-04-26T05:07:51.983Z,9.5
2019-04-26T05:09:13.485Z,9.5
2019-04-26T05:10:20.198Z,9.5
2019-04-26T05:11:27.422Z,9.6
2019-04-26T05:12:34.357Z,9.6
2019-04-26T05:13:41.565Z,9.7
2019-04-26T05:14:52.147Z,9.8
2019-04-26T05:16:00.513Z,9.8
2019-04-26T05:17:07.720Z,9.8
2019-04-26T05:18:14.393Z,9.9
2019-04-26T05:19:21.603Z,9.9
2019-04-26T05:20:28.537Z,9.9
2019-04-26T05:21:35.439Z,9.9
2019-04-26T05:22:42.380Z,9.9
2019-04-26T05:23:49.597Z,9.9
2019-04-26T05:24:57.342Z,9.9
2019-04-26T05:26:04.550Z,9.9
2019-04-26T05:27:11.752Z,9.9
2019-04-26T05:28:18.958Z,9.9
2019-04-26T05:29:25.890Z,10
2019-04-26T05:30:33.099Z,10
2019-04-26T05:31:40.310Z,10
2019-04-26T05:32:48.671Z,10
2019-04-26T05:33:57.336Z,10.1
2019-04-26T05:35:04.244Z,10.1
2019-04-26T05:36:11.477Z,10.1
2019-04-26T05:37:18.683Z,10.1
2019-04-26T05:38:25.902Z,10
2019-04-26T05:39:33.114Z,10
2019-04-26T05:40:40.321Z,10.1
2019-04-26T05:41:49.557Z,10.1
2019-04-26T05:42:58.494Z,10.2
2019-04-26T05:44:05.701Z,10.1
2019-04-26T05:45:12.920Z,10.2
2019-04-26T05:46:19.856Z,10.1
2019-04-26T05:47:26.792Z,10.2
2019-04-26T05:48:33.720Z,10.1
2019-04-26T05:49:40.927Z,10.1
2019-04-26T05:50:47.880Z,10.2
2019-04-26T05:51:58.328Z,10.2
2019-04-26T05:53:05.521Z,10.3
2019-04-26T05:54:12.743Z,10.3
2019-04-26T05:55:19.952Z,10.3
2019-04-26T05:56:27.164Z,10.4
2019-04-26T05:57:34.104Z,10.3
2019-04-26T05:58:41.314Z,10.4
2019-04-26T05:59:48.239Z,10.4
2019-04-26T06:00:57.853Z,10.4
2019-04-26T06:02:04.829Z,10.4
2019-04-26T06:03:11.774Z,10.4
2019-04-26T06:04:18.713Z,10.4
2019-04-26T06:05:25.651Z,10.4
2019-04-26T06:06:32.857Z,10.5
2019-04-26T06:07:39.788Z,10.5
2019-04-26T06:08:47.012Z,10.5
2019-04-26T06:09:54.937Z,10.5
2019-04-26T06:11:03.239Z,10.5
2019-04-26T06:12:12.966Z,10.6
2019-04-26T06:13:20.173Z,10.6
2019-04-26T06:14:27.103Z,10.7
2019-04-26T06:15:34.033Z,10.8
2019-04-26T06:16:41.237Z,10.8
2019-04-26T06:17:48.190Z,10.8
2019-04-26T06:18:55.671Z,10.8
2019-04-26T06:20:04.024Z,10.8
2019-04-26T06:21:11.259Z,10.8
2019-04-26T06:22:18.467Z,10.9
2019-04-26T06:23:25.675Z,10.9
2019-04-26T06:24:32.896Z,11
2019-04-26T06:25:39.830Z,11.1
2019-04-26T06:26:47.050Z,11
2019-04-26T06:27:56.179Z,11
2019-04-26T06:29:05.522Z,11
2019-04-26T06:30:12.734Z,11.1
2019-04-26T06:31:19.952Z,11
2019-04-26T06:32:26.721Z,11
2019-04-26T06:33:33.862Z,11.1
2019-04-26T06:34:41.095Z,11
2019-04-26T06:35:48.081Z,11
2019-04-26T06:36:57.574Z,10.9
2019-04-26T06:38:05.972Z,10.9
2019-04-26T06:39:12.924Z,10.9
2019-04-26T06:40:20.192Z,10.9
2019-04-26T06:41:27.408Z,11
2019-04-26T06:42:34.626Z,11
2019-04-26T06:43:41.566Z,11.1
2019-04-26T06:44:48.778Z,11.1
2019-04-26T06:45:58.508Z,11.2
2019-04-26T06:47:07.212Z,11.2
2019-04-26T06:48:14.424Z,11.3
2019-04-26T06:49:21.667Z,11.3
2019-04-26T06:50:28.875Z,11.4
2019-04-26T06:51:36.094Z,11.4
2019-04-26T06:52:43.297Z,11.5
2019-04-26T06:53:50.277Z,11.6
2019-04-26T06:54:58.330Z,11.6
2019-04-26T06:56:07.415Z,11.6
2019-04-26T06:57:15.839Z,11.6
2019-04-26T06:58:22.785Z,11.6
2019-04-26T06:59:37.001Z,11.5
2019-04-26T07:00:44.205Z,11.6
2019-04-26T07:01:51.142Z,11.6
2019-04-26T07:02:59.387Z,11.7
2019-04-26T07:04:07.789Z,11.8
2019-04-26T07:05:16.194Z,11.8
2019-04-26T07:06:35.490Z,11.9
2019-04-26T07:07:42.713Z,11.8
2019-04-26T07:09:00.532Z,11.9
2019-04-26T07:10:10.339Z,11.9
2019-04-26T07:11:17.566Z,11.8
2019-04-26T07:12:24.777Z,11.9
2019-04-26T07:13:31.993Z,11.8
2019-04-26T07:14:39.200Z,11.9
2019-04-26T07:15:46.415Z,11.8
2019-04-26T07:16:53.619Z,11.8
2019-04-26T07:18:02.129Z,11.7
2019-04-26T22:00:06.289Z,8.5
2019-04-26T22:01:19.107Z,8.5
2019-04-26T22:02:34.613Z,8.5
2019-04-26T22:03:55.050Z,8.5
2019-04-26T22:05:14.577Z,8.5
2019-04-26T22:06:28.822Z,8.5
2019-04-26T22:07:47.618Z,8.5
2019-04-26T22:09:02.458Z,8.5
2019-04-26T22:10:11.568Z,8.5
2019-04-26T22:11:23.085Z,8.5
2019-04-26T22:12:32.343Z,8.5
2019-04-26T22:13:43.238Z,8.5
2019-04-26T22:15:00.888Z,8.5
2019-04-26T22:16:35.398Z,8.5
2019-04-26T22:17:56.574Z,8.5
2019-04-26T22:19:04.387Z,8.5
2019-04-26T22:20:16.463Z,8.5
2019-04-26T22:21:30.054Z,8.5
2019-04-26T22:22:42.711Z,8.6
2019-04-26T22:23:54.355Z,8.6
2019-04-26T22:25:03.642Z,8.6
2019-04-26T22:26:10.972Z,8.6
2019-04-26T22:27:25.924Z,8.6
2019-04-26T22:28:37.570Z,8.5
2019-04-26T22:29:51.725Z,8.6
2019-04-26T22:31:08.565Z,8.6
2019-04-26T22:32:19.481Z,8.6
2019-04-26T22:33:30.802Z,8.6
2019-04-26T22:34:44.859Z,8.6
2019-04-26T22:35:58.551Z,8.6
2019-04-26T22:37:29.437Z,8.6
2019-04-26T22:38:37.175Z,8.6
2019-04-26T22:39:44.921Z,8.6
2019-04-26T22:40:56.183Z,8.6
2019-04-26T22:42:04.215Z,8.6
2019-04-26T22:43:20.096Z,8.6
2019-04-26T22:44:32.878Z,8.6
2019-04-26T22:45:46.935Z,8.5
2019-04-26T22:46:54.457Z,8.5
2019-04-26T22:48:17.969Z,8.5
2019-04-26T22:49:41.929Z,8.5
2019-04-26T22:50:59.631Z,8.5
2019-04-26T22:52:15.907Z,8.5
2019-04-26T22:53:27.502Z,8.5
2019-04-26T22:54:42.708Z,8.5
2019-04-26T22:55:57.620Z,8.5
2019-04-26T22:57:16.255Z,8.5
2019-04-26T22:58:28.751Z,8.5
2019-04-26T22:59:46.380Z,8.5
2019-04-26T23:01:06.440Z,8.5
2019-04-26T23:02:18.260Z,8.5
2019-04-26T23:03:41.076Z,8.5
2019-04-26T23:05:00.405Z,8.5
2019-04-26T23:06:15.324Z,8.4
2019-04-26T23:07:26.161Z,8.4
2019-04-26T23:08:38.554Z,8.4
2019-04-26T23:09:55.328Z,8.4
2019-04-26T23:11:09.013Z,8.4
2019-04-26T23:12:28.047Z,8.4
2019-04-26T23:13:41.195Z,8.4
2019-04-26T23:14:55.115Z,8.4
2019-04-26T23:16:11.378Z,8.3
2019-04-26T23:17:18.433Z,8.3
2019-04-26T23:18:25.642Z,8.3
2019-04-26T23:19:33.960Z,8.3
2019-04-26T23:20:42.641Z,8.3
2019-04-26T23:21:55.987Z,8.3
2019-04-26T23:23:08.806Z,8.3
2019-04-26T23:24:19.281Z,8.3
2019-04-26T23:25:31.110Z,8.3
2019-04-26T23:26:45.120Z,8.2
2019-04-26T23:27:58.299Z,8.3
2019-04-26T23:29:15.661Z,8.3
2019-04-26T23:30:31.648Z,8.3
2019-04-26T23:31:44.564Z,8.3
2019-04-26T23:32:53.247Z,8.2
2019-04-26T23:34:00.526Z,8.2
2019-04-26T23:35:09.705Z,8.2
2019-04-26T23:36:19.619Z,8.2
2019-04-26T23:37:28.248Z,8.2
2019-04-26T23:38:38.010Z,8.2
2019-04-26T23:39:51.451Z,8.3
2019-04-26T23:41:07.135Z,8.2
2019-04-26T23:42:17.569Z,8.2
2019-04-26T23:43:26.118Z,8.3
2019-04-26T23:44:36.870Z,8.2
2019-04-26T23:45:49.332Z,8.2
2019-04-26T23:47:02.701Z,8.3
2019-04-26T23:48:29.443Z,8.3
2019-04-26T23:49:36.656Z,8.3
2019-04-26T23:50:43.857Z,8.3
2019-04-26T23:51:51.055Z,8.3
2019-04-26T23:53:00.041Z,8.3
2019-04-26T23:54:07.250Z,8.3
2019-04-26T23:55:14.465Z,8.3
2019-04-26T23:56:25.542Z,8.2
2019-04-26T23:57:36.713Z,8.2
2019-04-26T23:58:45.633Z,8.2
